sensor_id;sensor_type;location;lat;lon;timestamp;P1;durP1;ratioP1;P2;durP2;ratioP2
74233;SDS011;62591;55.764;37.718;2022-11-20T00:01:36;16.55;;;8.77;;
74233;SDS011;62591;55.764;37.718;2022-11-20T00:04:04;14.65;;;8.25;;
74233;SDS011;62591;55.764;37.718;2022-11-20T00:06:33;13.45;;;8.35;;
74233;SDS011;62591;55.764;37.718;2022-11-20T00:09:03;17.85;;;8.73;;
74233;SDS011;62591;55.764;37.718;2022-11-20T00:11:33;16.40;;;9.10;;
74233;SDS011;62591;55.764;37.718;2022-11-20T00:14:01;16.35;;;9.18;;
74233;SDS011;62591;55.764;37.718;2022-11-20T00:16:31;14.10;;;8.27;;
74233;SDS011;62591;55.764;37.718;2022-11-20T00:19:00;14.63;;;8.02;;
74233;SDS011;62591;55.764;37.718;2022-11-20T00:21:29;13.10;;;7.90;;
74233;SDS011;62591;55.764;37.718;2022-11-20T00:23:58;13.40;;;8.10;;
74233;SDS011;62591;55.764;37.718;2022-11-20T00:26:28;13.90;;;7.82;;
74233;SDS011;62591;55.764;37.718;2022-11-20T00:28:58;12.68;;;7.60;;
74233;SDS011;62591;55.764;37.718;2022-11-20T00:31:28;11.13;;;6.72;;
74233;SDS011;62591;55.764;37.718;2022-11-20T00:33:59;11.45;;;6.78;;
74233;SDS011;62591;55.764;37.718;2022-11-20T00:36:28;13.98;;;7.63;;
74233;SDS011;62591;55.764;37.718;2022-11-20T00:38:59;14.65;;;8.02;;
74233;SDS011;62591;55.764;37.718;2022-11-20T00:41:31;14.68;;;8.45;;
74233;SDS011;62591;55.764;37.718;2022-11-20T00:44:00;12.77;;;7.57;;
74233;SDS011;62591;55.764;37.718;2022-11-20T00:46:28;12.48;;;7.50;;
74233;SDS011;62591;55.764;37.718;2022-11-20T00:48:57;11.77;;;7.47;;
74233;SDS011;62591;55.764;37.718;2022-11-20T00:51:26;11.35;;;7.10;;
74233;SDS011;62591;55.764;37.718;2022-11-20T00:53:55;12.93;;;6.85;;
74233;SDS011;62591;55.764;37.718;2022-11-20T00:56:24;12.13;;;6.55;;
74233;SDS011;62591;55.764;37.718;2022-11-20T00:58:54;12.63;;;7.15;;
74233;SDS011;62591;55.764;37.718;2022-11-20T01:01:24;13.48;;;6.85;;
74233;SDS011;62591;55.764;37.718;2022-11-20T01:03:56;12.25;;;7.72;;
74233;SDS011;62591;55.764;37.718;2022-11-20T01:06:26;14.77;;;8.43;;
74233;SDS011;62591;55.764;37.718;2022-11-20T01:08:57;15.13;;;7.35;;
74233;SDS011;62591;55.764;37.718;2022-11-20T01:11:27;13.30;;;7.63;;
74233;SDS011;62591;55.764;37.718;2022-11-20T01:13:58;11.75;;;7.20;;
74233;SDS011;62591;55.764;37.718;2022-11-20T01:16:28;11.40;;;7.03;;
74233;SDS011;62591;55.764;37.718;2022-11-20T01:18:59;13.43;;;7.63;;
74233;SDS011;62591;55.764;37.718;2022-11-20T01:21:29;11.27;;;6.80;;
74233;SDS011;62591;55.764;37.718;2022-11-20T01:23:59;13.80;;;7.03;;
74233;SDS011;62591;55.764;37.718;2022-11-20T01:26:30;12.60;;;7.72;;
74233;SDS011;62591;55.764;37.718;2022-11-20T01:29:00;12.85;;;6.82;;
74233;SDS011;62591;55.764;37.718;2022-11-20T01:31:30;12.00;;;6.90;;
74233;SDS011;62591;55.764;37.718;2022-11-20T01:34:01;12.75;;;6.38;;
74233;SDS011;62591;55.764;37.718;2022-11-20T01:36:31;14.80;;;7.72;;
74233;SDS011;62591;55.764;37.718;2022-11-20T01:39:02;11.95;;;6.43;;
74233;SDS011;62591;55.764;37.718;2022-11-20T01:41:32;11.18;;;7.40;;
74233;SDS011;62591;55.764;37.718;2022-11-20T01:44:21;10.20;;;6.35;;
74233;SDS011;62591;55.764;37.718;2022-11-20T01:46:52;11.45;;;6.72;;
74233;SDS011;62591;55.764;37.718;2022-11-20T01:49:26;10.65;;;5.97;;
74233;SDS011;62591;55.764;37.718;2022-11-20T01:52:02;12.80;;;6.75;;
74233;SDS011;62591;55.764;37.718;2022-11-20T01:54:33;10.95;;;6.85;;
74233;SDS011;62591;55.764;37.718;2022-11-20T01:57:05;11.43;;;6.43;;
74233;SDS011;62591;55.764;37.718;2022-11-20T01:59:39;11.95;;;7.07;;
74233;SDS011;62591;55.764;37.718;2022-11-20T02:02:24;10.75;;;5.63;;
74233;SDS011;62591;55.764;37.718;2022-11-20T02:04:54;10.32;;;5.53;;
74233;SDS011;62591;55.764;37.718;2022-11-20T02:07:29;11.13;;;6.20;;
74233;SDS011;62591;55.764;37.718;2022-11-20T02:09:59;10.88;;;6.00;;
74233;SDS011;62591;55.764;37.718;2022-11-20T02:12:28;10.43;;;6.03;;
74233;SDS011;62591;55.764;37.718;2022-11-20T02:15:36;11.95;;;6.63;;
74233;SDS011;62591;55.764;37.718;2022-11-20T02:18:04;11.00;;;5.90;;
74233;SDS011;62591;55.764;37.718;2022-11-20T02:20:33;11.25;;;6.13;;
74233;SDS011;62591;55.764;37.718;2022-11-20T02:23:03;12.57;;;6.40;;
74233;SDS011;62591;55.764;37.718;2022-11-20T02:25:38;9.07;;;5.63;;
74233;SDS011;62591;55.764;37.718;2022-11-20T02:28:09;11.45;;;6.07;;
74233;SDS011;62591;55.764;37.718;2022-11-20T02:30:38;11.02;;;6.57;;
74233;SDS011;62591;55.764;37.718;2022-11-20T02:33:06;13.27;;;6.22;;
74233;SDS011;62591;55.764;37.718;2022-11-20T02:35:42;12.32;;;5.97;;
74233;SDS011;62591;55.764;37.718;2022-11-20T02:38:12;12.18;;;6.72;;
74233;SDS011;62591;55.764;37.718;2022-11-20T02:40:43;12.13;;;6.68;;
74233;SDS011;62591;55.764;37.718;2022-11-20T02:43:11;9.65;;;5.63;;
74233;SDS011;62591;55.764;37.718;2022-11-20T02:45:39;11.40;;;6.13;;
74233;SDS011;62591;55.764;37.718;2022-11-20T02:48:08;11.20;;;6.65;;
74233;SDS011;62591;55.764;37.718;2022-11-20T02:50:37;11.18;;;6.15;;
74233;SDS011;62591;55.764;37.718;2022-11-20T02:53:06;11.23;;;6.07;;
74233;SDS011;62591;55.764;37.718;2022-11-20T02:55:35;10.13;;;5.82;;
74233;SDS011;62591;55.764;37.718;2022-11-20T02:58:05;13.40;;;6.70;;
74233;SDS011;62591;55.764;37.718;2022-11-20T03:00:33;13.05;;;7.15;;
74233;SDS011;62591;55.764;37.718;2022-11-20T03:03:02;10.75;;;6.22;;
74233;SDS011;62591;55.764;37.718;2022-11-20T03:05:31;12.20;;;5.97;;
74233;SDS011;62591;55.764;37.718;2022-11-20T03:07:59;12.18;;;6.38;;
74233;SDS011;62591;55.764;37.718;2022-11-20T03:10:28;10.70;;;7.07;;
74233;SDS011;62591;55.764;37.718;2022-11-20T03:12:56;11.98;;;6.72;;
74233;SDS011;62591;55.764;37.718;2022-11-20T03:15:26;11.57;;;5.63;;
74233;SDS011;62591;55.764;37.718;2022-11-20T03:17:55;11.38;;;6.10;;
74233;SDS011;62591;55.764;37.718;2022-11-20T03:20:23;13.25;;;6.55;;
74233;SDS011;62591;55.764;37.718;2022-11-20T03:22:53;10.90;;;5.80;;
74233;SDS011;62591;55.764;37.718;2022-11-20T03:25:22;11.68;;;6.13;;
74233;SDS011;62591;55.764;37.718;2022-11-20T03:27:53;10.60;;;6.07;;
74233;SDS011;62591;55.764;37.718;2022-11-20T03:30:22;10.75;;;6.13;;
74233;SDS011;62591;55.764;37.718;2022-11-20T03:32:57;12.18;;;6.70;;
74233;SDS011;62591;55.764;37.718;2022-11-20T03:35:26;12.75;;;6.28;;
74233;SDS011;62591;55.764;37.718;2022-11-20T03:37:55;12.90;;;6.45;;
74233;SDS011;62591;55.764;37.718;2022-11-20T03:40:24;12.18;;;6.47;;
74233;SDS011;62591;55.764;37.718;2022-11-20T03:42:53;12.68;;;6.72;;
74233;SDS011;62591;55.764;37.718;2022-11-20T03:45:21;11.43;;;6.22;;
74233;SDS011;62591;55.764;37.718;2022-11-20T03:47:50;11.60;;;6.35;;
74233;SDS011;62591;55.764;37.718;2022-11-20T03:50:19;10.00;;;5.95;;
74233;SDS011;62591;55.764;37.718;2022-11-20T03:52:48;11.63;;;6.30;;
74233;SDS011;62591;55.764;37.718;2022-11-20T03:55:16;11.40;;;6.28;;
74233;SDS011;62591;55.764;37.718;2022-11-20T03:57:45;11.88;;;6.35;;
74233;SDS011;62591;55.764;37.718;2022-11-20T04:02:42;10.80;;;5.63;;
74233;SDS011;62591;55.764;37.718;2022-11-20T04:05:11;11.02;;;6.50;;
74233;SDS011;62591;55.764;37.718;2022-11-20T04:07:41;10.82;;;5.72;;
74233;SDS011;62591;55.764;37.718;2022-11-20T04:10:09;10.50;;;6.00;;
74233;SDS011;62591;55.764;37.718;2022-11-20T04:12:40;11.90;;;6.22;;
74233;SDS011;62591;55.764;37.718;2022-11-20T04:15:09;11.80;;;6.32;;
74233;SDS011;62591;55.764;37.718;2022-11-20T04:17:37;13.20;;;6.30;;
74233;SDS011;62591;55.764;37.718;2022-11-20T04:20:06;11.10;;;6.50;;
74233;SDS011;62591;55.764;37.718;2022-11-20T04:22:37;11.50;;;6.78;;
74233;SDS011;62591;55.764;37.718;2022-11-20T04:25:08;11.60;;;6.28;;
74233;SDS011;62591;55.764;37.718;2022-11-20T04:27:36;9.95;;;5.97;;
74233;SDS011;62591;55.764;37.718;2022-11-20T04:30:05;11.18;;;6.25;;
74233;SDS011;62591;55.764;37.718;2022-11-20T04:32:34;11.32;;;6.43;;
74233;SDS011;62591;55.764;37.718;2022-11-20T04:35:03;11.18;;;6.35;;
74233;SDS011;62591;55.764;37.718;2022-11-20T04:37:32;10.80;;;6.22;;
74233;SDS011;62591;55.764;37.718;2022-11-20T04:40:00;12.45;;;6.80;;
74233;SDS011;62591;55.764;37.718;2022-11-20T04:42:30;12.68;;;6.55;;
74233;SDS011;62591;55.764;37.718;2022-11-20T04:44:58;10.18;;;6.38;;
74233;SDS011;62591;55.764;37.718;2022-11-20T04:47:29;10.57;;;6.35;;
74233;SDS011;62591;55.764;37.718;2022-11-20T04:49:57;13.00;;;6.65;;
74233;SDS011;62591;55.764;37.718;2022-11-20T04:52:28;11.38;;;6.40;;
74233;SDS011;62591;55.764;37.718;2022-11-20T04:54:57;13.18;;;6.70;;
74233;SDS011;62591;55.764;37.718;2022-11-20T04:57:25;10.23;;;6.32;;
74233;SDS011;62591;55.764;37.718;2022-11-20T04:59:55;12.50;;;6.55;;
74233;SDS011;62591;55.764;37.718;2022-11-20T05:02:24;13.85;;;6.90;;
74233;SDS011;62591;55.764;37.718;2022-11-20T05:04:52;10.63;;;6.18;;
74233;SDS011;62591;55.764;37.718;2022-11-20T05:07:20;14.15;;;7.50;;
74233;SDS011;62591;55.764;37.718;2022-11-20T05:09:49;13.40;;;6.78;;
74233;SDS011;62591;55.764;37.718;2022-11-20T05:12:17;13.93;;;7.28;;
74233;SDS011;62591;55.764;37.718;2022-11-20T05:14:47;12.63;;;6.97;;
74233;SDS011;62591;55.764;37.718;2022-11-20T05:17:17;12.52;;;7.72;;
74233;SDS011;62591;55.764;37.718;2022-11-20T05:19:46;15.13;;;7.60;;
74233;SDS011;62591;55.764;37.718;2022-11-20T05:22:18;16.05;;;7.20;;
74233;SDS011;62591;55.764;37.718;2022-11-20T05:24:47;12.35;;;7.38;;
74233;SDS011;62591;55.764;37.718;2022-11-20T05:27:15;12.82;;;7.82;;
74233;SDS011;62591;55.764;37.718;2022-11-20T05:29:44;13.07;;;7.13;;
74233;SDS011;62591;55.764;37.718;2022-11-20T05:32:12;16.50;;;7.82;;
74233;SDS011;62591;55.764;37.718;2022-11-20T05:34:42;13.77;;;7.57;;
74233;SDS011;62591;55.764;37.718;2022-11-20T05:37:10;14.57;;;7.28;;
74233;SDS011;62591;55.764;37.718;2022-11-20T05:39:39;17.80;;;8.80;;
74233;SDS011;62591;55.764;37.718;2022-11-20T05:42:07;11.75;;;7.50;;
74233;SDS011;62591;55.764;37.718;2022-11-20T05:44:53;13.30;;;7.47;;
74233;SDS011;62591;55.764;37.718;2022-11-20T05:47:22;14.32;;;7.50;;
74233;SDS011;62591;55.764;37.718;2022-11-20T05:49:52;14.88;;;7.50;;
74233;SDS011;62591;55.764;37.718;2022-11-20T05:52:20;15.25;;;8.55;;
74233;SDS011;62591;55.764;37.718;2022-11-20T05:54:49;12.73;;;6.90;;
74233;SDS011;62591;55.764;37.718;2022-11-20T05:57:17;13.85;;;7.32;;
74233;SDS011;62591;55.764;37.718;2022-11-20T05:59:46;13.35;;;7.90;;
74233;SDS011;62591;55.764;37.718;2022-11-20T06:02:14;13.60;;;8.27;;
74233;SDS011;62591;55.764;37.718;2022-11-20T06:04:44;14.43;;;7.90;;
74233;SDS011;62591;55.764;37.718;2022-11-20T06:07:14;14.13;;;8.35;;
74233;SDS011;62591;55.764;37.718;2022-11-20T06:09:42;14.13;;;8.63;;
74233;SDS011;62591;55.764;37.718;2022-11-20T06:12:11;16.27;;;8.38;;
74233;SDS011;62591;55.764;37.718;2022-11-20T06:14:39;14.23;;;8.25;;
74233;SDS011;62591;55.764;37.718;2022-11-20T06:17:07;14.80;;;8.10;;
74233;SDS011;62591;55.764;37.718;2022-11-20T06:19:35;13.50;;;8.10;;
74233;SDS011;62591;55.764;37.718;2022-11-20T06:22:04;15.18;;;9.10;;
74233;SDS011;62591;55.764;37.718;2022-11-20T06:24:34;15.73;;;8.13;;
74233;SDS011;62591;55.764;37.718;2022-11-20T06:27:02;15.32;;;8.40;;
74233;SDS011;62591;55.764;37.718;2022-11-20T06:29:30;13.18;;;7.95;;
74233;SDS011;62591;55.764;37.718;2022-11-20T06:31:59;16.55;;;8.02;;
74233;SDS011;62591;55.764;37.718;2022-11-20T06:34:28;16.13;;;8.40;;
74233;SDS011;62591;55.764;37.718;2022-11-20T06:36:56;14.98;;;8.95;;
74233;SDS011;62591;55.764;37.718;2022-11-20T06:39:25;15.82;;;9.63;;
74233;SDS011;62591;55.764;37.718;2022-11-20T06:41:55;14.98;;;8.27;;
74233;SDS011;62591;55.764;37.718;2022-11-20T06:44:25;15.82;;;8.88;;
74233;SDS011;62591;55.764;37.718;2022-11-20T06:46:53;14.50;;;8.35;;
74233;SDS011;62591;55.764;37.718;2022-11-20T06:49:21;14.27;;;8.63;;
74233;SDS011;62591;55.764;37.718;2022-11-20T06:51:50;17.73;;;9.15;;
74233;SDS011;62591;55.764;37.718;2022-11-20T06:54:19;13.48;;;8.85;;
74233;SDS011;62591;55.764;37.718;2022-11-20T06:56:47;14.60;;;9.15;;
74233;SDS011;62591;55.764;37.718;2022-11-20T06:59:17;14.45;;;8.55;;
74233;SDS011;62591;55.764;37.718;2022-11-20T07:01:46;19.92;;;10.05;;
74233;SDS011;62591;55.764;37.718;2022-11-20T07:04:16;17.55;;;8.35;;
74233;SDS011;62591;55.764;37.718;2022-11-20T07:06:44;15.60;;;8.73;;
74233;SDS011;62591;55.764;37.718;2022-11-20T07:09:12;15.82;;;9.50;;
74233;SDS011;62591;55.764;37.718;2022-11-20T07:11:41;16.92;;;8.63;;
74233;SDS011;62591;55.764;37.718;2022-11-20T07:14:09;17.83;;;8.50;;
74233;SDS011;62591;55.764;37.718;2022-11-20T07:16:39;20.33;;;9.80;;
74233;SDS011;62591;55.764;37.718;2022-11-20T07:19:09;15.60;;;8.90;;
74233;SDS011;62591;55.764;37.718;2022-11-20T07:21:38;17.00;;;8.88;;
74233;SDS011;62591;55.764;37.718;2022-11-20T07:24:06;17.05;;;9.05;;
74233;SDS011;62591;55.764;37.718;2022-11-20T07:26:35;17.80;;;8.93;;
74233;SDS011;62591;55.764;37.718;2022-11-20T07:29:03;16.20;;;8.98;;
74233;SDS011;62591;55.764;37.718;2022-11-20T07:31:32;22.80;;;11.60;;
74233;SDS011;62591;55.764;37.718;2022-11-20T07:34:02;19.17;;;10.18;;
74233;SDS011;62591;55.764;37.718;2022-11-20T07:36:31;17.80;;;8.80;;
74233;SDS011;62591;55.764;37.718;2022-11-20T07:38:59;17.42;;;9.48;;
74233;SDS011;62591;55.764;37.718;2022-11-20T07:41:28;19.50;;;10.35;;
74233;SDS011;62591;55.764;37.718;2022-11-20T07:43:56;17.15;;;8.95;;
74233;SDS011;62591;55.764;37.718;2022-11-20T07:46:25;23.52;;;9.95;;
74233;SDS011;62591;55.764;37.718;2022-11-20T07:48:53;15.13;;;9.30;;
74233;SDS011;62591;55.764;37.718;2022-11-20T07:51:23;22.90;;;10.80;;
74233;SDS011;62591;55.764;37.718;2022-11-20T07:53:52;19.52;;;10.13;;
74233;SDS011;62591;55.764;37.718;2022-11-20T07:56:21;19.40;;;10.15;;
74233;SDS011;62591;55.764;37.718;2022-11-20T07:58:51;19.45;;;10.18;;
74233;SDS011;62591;55.764;37.718;2022-11-20T08:01:20;17.83;;;11.52;;
74233;SDS011;62591;55.764;37.718;2022-11-20T08:03:48;19.23;;;10.63;;
74233;SDS011;62591;55.764;37.718;2022-11-20T08:06:17;17.90;;;10.52;;
74233;SDS011;62591;55.764;37.718;2022-11-20T08:08:48;20.48;;;11.13;;
74233;SDS011;62591;55.764;37.718;2022-11-20T08:11:16;21.55;;;10.32;;
74233;SDS011;62591;55.764;37.718;2022-11-20T08:14:02;16.23;;;9.30;;
74233;SDS011;62591;55.764;37.718;2022-11-20T08:16:41;17.33;;;10.13;;
74233;SDS011;62591;55.764;37.718;2022-11-20T08:19:10;28.48;;;16.52;;
74233;SDS011;62591;55.764;37.718;2022-11-20T08:21:39;32.88;;;17.73;;
74233;SDS011;62591;55.764;37.718;2022-11-20T08:24:09;34.00;;;17.30;;
74233;SDS011;62591;55.764;37.718;2022-11-20T08:26:38;29.40;;;14.85;;
74233;SDS011;62591;55.764;37.718;2022-11-20T08:29:08;24.50;;;13.60;;
74233;SDS011;62591;55.764;37.718;2022-11-20T08:31:36;20.73;;;12.27;;
74233;SDS011;62591;55.764;37.718;2022-11-20T08:34:05;20.55;;;11.50;;
74233;SDS011;62591;55.764;37.718;2022-11-20T08:36:35;24.63;;;13.95;;
74233;SDS011;62591;55.764;37.718;2022-11-20T08:39:10;23.48;;;12.73;;
74233;SDS011;62591;55.764;37.718;2022-11-20T08:41:41;26.75;;;13.40;;
74233;SDS011;62591;55.764;37.718;2022-11-20T08:44:10;27.92;;;15.27;;
74233;SDS011;62591;55.764;37.718;2022-11-20T08:46:39;24.17;;;13.60;;
74233;SDS011;62591;55.764;37.718;2022-11-20T08:49:10;28.55;;;15.05;;
74233;SDS011;62591;55.764;37.718;2022-11-20T08:51:41;22.90;;;13.60;;
74233;SDS011;62591;55.764;37.718;2022-11-20T08:54:10;22.30;;;13.30;;
74233;SDS011;62591;55.764;37.718;2022-11-20T08:56:40;27.38;;;12.93;;
74233;SDS011;62591;55.764;37.718;2022-11-20T08:59:09;26.48;;;13.32;;
74233;SDS011;62591;55.764;37.718;2022-11-20T09:01:57;21.63;;;12.27;;
74233;SDS011;62591;55.764;37.718;2022-11-20T09:04:26;27.90;;;13.73;;
74233;SDS011;62591;55.764;37.718;2022-11-20T09:06:55;33.97;;;15.85;;
74233;SDS011;62591;55.764;37.718;2022-11-20T09:09:23;26.60;;;14.48;;
74233;SDS011;62591;55.764;37.718;2022-11-20T09:11:53;51.13;;;22.85;;
74233;SDS011;62591;55.764;37.718;2022-11-20T09:14:22;47.67;;;20.42;;
74233;SDS011;62591;55.764;37.718;2022-11-20T09:16:56;45.63;;;19.23;;
74233;SDS011;62591;55.764;37.718;2022-11-20T09:19:25;45.28;;;20.25;;
74233;SDS011;62591;55.764;37.718;2022-11-20T09:22:06;35.33;;;17.55;;
74233;SDS011;62591;55.764;37.718;2022-11-20T09:24:35;31.13;;;15.25;;
74233;SDS011;62591;55.764;37.718;2022-11-20T09:27:05;30.08;;;14.98;;
74233;SDS011;62591;55.764;37.718;2022-11-20T09:29:34;41.35;;;19.00;;
74233;SDS011;62591;55.764;37.718;2022-11-20T09:32:03;36.95;;;17.65;;
74233;SDS011;62591;55.764;37.718;2022-11-20T09:34:33;42.65;;;21.17;;
74233;SDS011;62591;55.764;37.718;2022-11-20T09:37:01;43.50;;;18.00;;
74233;SDS011;62591;55.764;37.718;2022-11-20T09:39:34;32.05;;;16.25;;
74233;SDS011;62591;55.764;37.718;2022-11-20T09:42:17;32.50;;;15.02;;
74233;SDS011;62591;55.764;37.718;2022-11-20T09:45:13;27.65;;;14.27;;
74233;SDS011;62591;55.764;37.718;2022-11-20T09:47:50;27.63;;;14.55;;
74233;SDS011;62591;55.764;37.718;2022-11-20T09:50:31;28.45;;;14.10;;
74233;SDS011;62591;55.764;37.718;2022-11-20T09:53:07;26.15;;;12.82;;
74233;SDS011;62591;55.764;37.718;2022-11-20T09:55:44;29.58;;;14.57;;
74233;SDS011;62591;55.764;37.718;2022-11-20T09:58:19;24.67;;;13.50;;
74233;SDS011;62591;55.764;37.718;2022-11-20T10:00:56;32.70;;;14.30;;
74233;SDS011;62591;55.764;37.718;2022-11-20T10:03:36;33.28;;;15.10;;
74233;SDS011;62591;55.764;37.718;2022-11-20T10:06:11;29.70;;;15.35;;
74233;SDS011;62591;55.764;37.718;2022-11-20T10:08:44;30.55;;;15.38;;
74233;SDS011;62591;55.764;37.718;2022-11-20T10:11:20;37.47;;;17.40;;
74233;SDS011;62591;55.764;37.718;2022-11-20T10:13:59;38.20;;;15.85;;
74233;SDS011;62591;55.764;37.718;2022-11-20T10:16:36;34.80;;;16.05;;
74233;SDS011;62591;55.764;37.718;2022-11-20T10:19:18;34.00;;;16.65;;
74233;SDS011;62591;55.764;37.718;2022-11-20T10:22:03;38.97;;;17.42;;
74233;SDS011;62591;55.764;37.718;2022-11-20T10:24:47;43.72;;;17.70;;
74233;SDS011;62591;55.764;37.718;2022-11-20T10:27:30;35.92;;;17.65;;
74233;SDS011;62591;55.764;37.718;2022-11-20T10:30:18;34.97;;;17.90;;
74233;SDS011;62591;55.764;37.718;2022-11-20T10:32:52;37.10;;;17.50;;
74233;SDS011;62591;55.764;37.718;2022-11-20T10:35:23;36.28;;;16.50;;
74233;SDS011;62591;55.764;37.718;2022-11-20T10:37:58;38.92;;;17.25;;
74233;SDS011;62591;55.764;37.718;2022-11-20T10:40:30;34.05;;;18.02;;
74233;SDS011;62591;55.764;37.718;2022-11-20T10:43:04;39.08;;;18.02;;
74233;SDS011;62591;55.764;37.718;2022-11-20T10:45:45;35.88;;;16.25;;
74233;SDS011;62591;55.764;37.718;2022-11-20T10:48:20;37.90;;;16.27;;
74233;SDS011;62591;55.764;37.718;2022-11-20T10:50:54;38.30;;;17.58;;
74233;SDS011;62591;55.764;37.718;2022-11-20T10:53:40;30.42;;;14.55;;
74233;SDS011;62591;55.764;37.718;2022-11-20T10:56:16;35.70;;;15.82;;
74233;SDS011;62591;55.764;37.718;2022-11-20T10:58:51;32.75;;;16.20;;
74233;SDS011;62591;55.764;37.718;2022-11-20T11:01:29;36.22;;;16.48;;
74233;SDS011;62591;55.764;37.718;2022-11-20T11:03:58;35.83;;;15.77;;
74233;SDS011;62591;55.764;37.718;2022-11-20T11:06:28;30.38;;;15.80;;
74233;SDS011;62591;55.764;37.718;2022-11-20T11:09:03;36.65;;;16.08;;
74233;SDS011;62591;55.764;37.718;2022-11-20T11:11:50;28.95;;;14.45;;
74233;SDS011;62591;55.764;37.718;2022-11-20T11:14:18;37.53;;;14.85;;
74233;SDS011;62591;55.764;37.718;2022-11-20T11:16:52;28.85;;;13.15;;
74233;SDS011;62591;55.764;37.718;2022-11-20T11:19:22;21.95;;;11.40;;
74233;SDS011;62591;55.764;37.718;2022-11-20T11:21:52;23.45;;;11.40;;
74233;SDS011;62591;55.764;37.718;2022-11-20T11:24:24;25.83;;;11.98;;
74233;SDS011;62591;55.764;37.718;2022-11-20T11:27:11;21.30;;;11.20;;
74233;SDS011;62591;55.764;37.718;2022-11-20T11:29:43;20.85;;;10.10;;
74233;SDS011;62591;55.764;37.718;2022-11-20T11:32:14;19.90;;;10.65;;
74233;SDS011;62591;55.764;37.718;2022-11-20T11:34:44;19.42;;;10.00;;
74233;SDS011;62591;55.764;37.718;2022-11-20T11:37:17;21.20;;;11.15;;
74233;SDS011;62591;55.764;37.718;2022-11-20T11:39:48;19.52;;;10.27;;
74233;SDS011;62591;55.764;37.718;2022-11-20T11:42:40;21.40;;;9.65;;
74233;SDS011;62591;55.764;37.718;2022-11-20T11:45:13;16.67;;;8.98;;
74233;SDS011;62591;55.764;37.718;2022-11-20T11:47:47;16.75;;;8.82;;
74233;SDS011;62591;55.764;37.718;2022-11-20T11:50:17;19.20;;;10.02;;
74233;SDS011;62591;55.764;37.718;2022-11-20T11:52:50;18.52;;;9.13;;
74233;SDS011;62591;55.764;37.718;2022-11-20T11:55:26;16.50;;;9.35;;
74233;SDS011;62591;55.764;37.718;2022-11-20T11:58:02;19.52;;;8.90;;
74233;SDS011;62591;55.764;37.718;2022-11-20T12:00:39;19.65;;;9.23;;
74233;SDS011;62591;55.764;37.718;2022-11-20T12:03:16;21.67;;;9.88;;
74233;SDS011;62591;55.764;37.718;2022-11-20T12:05:49;18.85;;;9.18;;
74233;SDS011;62591;55.764;37.718;2022-11-20T12:08:23;21.13;;;10.85;;
74233;SDS011;62591;55.764;37.718;2022-11-20T12:10:56;15.10;;;9.13;;
74233;SDS011;62591;55.764;37.718;2022-11-20T12:13:42;19.30;;;9.75;;
74233;SDS011;62591;55.764;37.718;2022-11-20T12:16:17;20.45;;;9.88;;
74233;SDS011;62591;55.764;37.718;2022-11-20T12:18:50;17.50;;;8.73;;
74233;SDS011;62591;55.764;37.718;2022-11-20T12:21:25;15.13;;;8.85;;
74233;SDS011;62591;55.764;37.718;2022-11-20T12:24:03;19.85;;;9.82;;
74233;SDS011;62591;55.764;37.718;2022-11-20T12:26:49;16.40;;;9.25;;
74233;SDS011;62591;55.764;37.718;2022-11-20T12:29:31;17.83;;;9.15;;
74233;SDS011;62591;55.764;37.718;2022-11-20T12:32:27;24.67;;;13.40;;
74233;SDS011;62591;55.764;37.718;2022-11-20T12:35:10;16.17;;;9.23;;
74233;SDS011;62591;55.764;37.718;2022-11-20T12:37:52;16.38;;;8.80;;
74233;SDS011;62591;55.764;37.718;2022-11-20T12:40:31;17.40;;;9.10;;
74233;SDS011;62591;55.764;37.718;2022-11-20T12:43:11;18.40;;;8.40;;
74233;SDS011;62591;55.764;37.718;2022-11-20T12:46:08;19.80;;;11.23;;
74233;SDS011;62591;55.764;37.718;2022-11-20T12:52:10;24.38;;;12.85;;
74233;SDS011;62591;55.764;37.718;2022-11-20T12:54:54;21.73;;;11.57;;
74233;SDS011;62591;55.764;37.718;2022-11-20T12:57:42;19.50;;;10.35;;
74233;SDS011;62591;55.764;37.718;2022-11-20T13:00:18;18.58;;;9.75;;
74233;SDS011;62591;55.764;37.718;2022-11-20T13:05:50;20.92;;;11.80;;
74233;SDS011;62591;55.764;37.718;2022-11-20T13:08:25;30.35;;;14.77;;
74233;SDS011;62591;55.764;37.718;2022-11-20T13:10:59;22.70;;;11.88;;
74233;SDS011;62591;55.764;37.718;2022-11-20T13:13:39;19.58;;;10.55;;
74233;SDS011;62591;55.764;37.718;2022-11-20T13:16:15;20.80;;;10.23;;
74233;SDS011;62591;55.764;37.718;2022-11-20T13:18:47;17.05;;;9.43;;
74233;SDS011;62591;55.764;37.718;2022-11-20T13:21:17;18.27;;;10.15;;
74233;SDS011;62591;55.764;37.718;2022-11-20T13:23:48;28.80;;;14.85;;
74233;SDS011;62591;55.764;37.718;2022-11-20T13:26:19;18.17;;;9.63;;
74233;SDS011;62591;55.764;37.718;2022-11-20T13:28:59;19.10;;;9.73;;
74233;SDS011;62591;55.764;37.718;2022-11-20T13:31:31;16.70;;;9.15;;
74233;SDS011;62591;55.764;37.718;2022-11-20T13:34:03;17.10;;;8.93;;
74233;SDS011;62591;55.764;37.718;2022-11-20T13:36:35;19.25;;;9.45;;
74233;SDS011;62591;55.764;37.718;2022-11-20T13:39:05;18.95;;;9.00;;
74233;SDS011;62591;55.764;37.718;2022-11-20T13:41:34;15.63;;;8.02;;
74233;SDS011;62591;55.764;37.718;2022-11-20T13:44:06;15.52;;;7.72;;
74233;SDS011;62591;55.764;37.718;2022-11-20T13:46:45;14.45;;;7.68;;
74233;SDS011;62591;55.764;37.718;2022-11-20T13:49:16;15.10;;;7.93;;
74233;SDS011;62591;55.764;37.718;2022-11-20T13:51:49;11.82;;;6.95;;
74233;SDS011;62591;55.764;37.718;2022-11-20T13:57:47;16.20;;;7.95;;
74233;SDS011;62591;55.764;37.718;2022-11-20T14:00:45;18.38;;;8.82;;
74233;SDS011;62591;55.764;37.718;2022-11-20T14:03:18;14.70;;;8.40;;
74233;SDS011;62591;55.764;37.718;2022-11-20T14:06:11;19.15;;;9.18;;
74233;SDS011;62591;55.764;37.718;2022-11-20T14:08:46;16.83;;;9.48;;
74233;SDS011;62591;55.764;37.718;2022-11-20T14:11:17;21.17;;;10.95;;
74233;SDS011;62591;55.764;37.718;2022-11-20T14:13:56;18.60;;;10.82;;
74233;SDS011;62591;55.764;37.718;2022-11-20T14:16:27;18.75;;;9.68;;
74233;SDS011;62591;55.764;37.718;2022-11-20T14:18:57;19.25;;;9.35;;
74233;SDS011;62591;55.764;37.718;2022-11-20T14:21:27;15.50;;;8.30;;
74233;SDS011;62591;55.764;37.718;2022-11-20T14:24:03;15.40;;;9.20;;
74233;SDS011;62591;55.764;37.718;2022-11-20T14:26:32;16.15;;;8.80;;
74233;SDS011;62591;55.764;37.718;2022-11-20T14:29:03;16.80;;;8.65;;
74233;SDS011;62591;55.764;37.718;2022-11-20T14:31:32;16.63;;;9.13;;
74233;SDS011;62591;55.764;37.718;2022-11-20T14:34:01;15.43;;;8.25;;
74233;SDS011;62591;55.764;37.718;2022-11-20T14:36:30;17.25;;;8.63;;
74233;SDS011;62591;55.764;37.718;2022-11-20T14:38:59;16.17;;;8.02;;
74233;SDS011;62591;55.764;37.718;2022-11-20T14:41:27;16.73;;;8.23;;
74233;SDS011;62591;55.764;37.718;2022-11-20T14:43:58;14.20;;;7.65;;
74233;SDS011;62591;55.764;37.718;2022-11-20T14:46:30;16.85;;;9.10;;
74233;SDS011;62591;55.764;37.718;2022-11-20T14:49:02;13.77;;;8.55;;
74233;SDS011;62591;55.764;37.718;2022-11-20T14:51:32;17.02;;;8.48;;
74233;SDS011;62591;55.764;37.718;2022-11-20T14:54:08;17.58;;;9.35;;
74233;SDS011;62591;55.764;37.718;2022-11-20T14:56:39;18.15;;;9.20;;
74233;SDS011;62591;55.764;37.718;2022-11-20T14:59:08;19.30;;;9.75;;